»·PEaware :: N969WR KSBA-KSFO

N969WR :: KSBA-KSFO

FLIGHT INFORMATION

Flight Status: Arrived
Operator: Privately registered:
United States
More flights under this callsign
Pilot: Ion I. (24133)
Aircraft: BOEING 737-700
(B737)
More flights by this aircraft type
Origin: KSBA Santa Barbara Mun
United States
Destination: KSFO San Francisco Intl
United States
More flights between these airports :: More routes between these airports
Route: MQO SERFR SERFR4
File this flight plan on PilotEdge
Remarks:
Altitude:
(Current/Filed)
32,000ft
Speed:
(Current/Filed)
460kts
Departed: 07-Nov-21 10:08 PM
Arrived: 07-Nov-21 10:51 PM
Distance/Time
Traveled:
228nm/0:43
Distance/Time
To Go:
Arrived

Flight Plot

Page will automatically refresh every two minutes.

Flight plan parsing failed; only flown route is shown


Map Options




Map Legend


Flown Route
Filed Route
Departure Airport
Arrival Airport
Navaid (VOR, NDB)
Fix

Horizontal Profiles

Position Reports

Time Latitude Longitude Heading Altitude Ground
Speed
07-Nov-21 21:53 34.432582 -119.834346 250 18ft 0kts
07-Nov-21 21:54 34.432582 -119.834346 250 18ft 0kts
07-Nov-21 21:55 34.432582 -119.834346 250 18ft 0kts
07-Nov-21 21:56 34.432582 -119.834346 250 18ft 0kts
07-Nov-21 21:57 34.432582 -119.834346 250 18ft 0kts
07-Nov-21 21:58 34.432582 -119.834346 250 18ft 0kts
07-Nov-21 21:59 34.432582 -119.834346 250 18ft 0kts
07-Nov-21 22:00 34.432582 -119.834346 250 18ft 0kts
07-Nov-21 22:01 34.432582 -119.834346 250 18ft 0kts
07-Nov-21 22:02 34.432582 -119.834346 250 18ft 0kts
07-Nov-21 22:03 34.432582 -119.834346 250 18ft 0kts
07-Nov-21 22:04 34.432469 -119.834478 209 18ft 7kts
07-Nov-21 22:05 34.431449 -119.835339 177 18ft 13kts
07-Nov-21 22:06 34.428819 -119.834708 138 18ft 0kts
07-Nov-21 22:07 34.427677 -119.845998 268 18ft 120kts
07-Nov-21 22:08 34.425757 -119.897305 268 1685ft 177kts
07-Nov-21 22:09 34.423512 -119.957200 271 3800ft 190kts
07-Nov-21 22:10 34.419664 -120.021545 266 5846ft 212kts
07-Nov-21 22:11 34.415626 -120.095704 268 8023ft 226kts
07-Nov-21 22:12 34.425647 -120.169980 315 8602ft 260kts
07-Nov-21 22:13 34.485559 -120.217217 328 11224ft 299kts
07-Nov-21 22:14 34.566748 -120.273788 327 12815ft 376kts
07-Nov-21 22:15 34.660756 -120.339896 326 15625ft 399kts
07-Nov-21 22:16 34.758809 -120.409033 325 18594ft 415kts
07-Nov-21 22:17 34.860704 -120.480785 324 21153ft 432kts
07-Nov-21 22:18 34.966524 -120.555791 323 23313ft 447kts
07-Nov-21 22:19 35.065970 -120.626286 322 25057ft 458kts
07-Nov-21 22:20 35.177578 -120.706069 322 26658ft 470kts
07-Nov-21 22:21 35.283019 -120.781989 321 28109ft 474kts
07-Nov-21 22:22 35.395519 -120.864862 320 30029ft 470kts
07-Nov-21 22:23 35.506572 -120.946890 319 31609ft 468kts
07-Nov-21 22:24 35.618136 -121.029113 319 32178ft 467kts
07-Nov-21 22:25 35.724528 -121.107938 319 32195ft 465kts
07-Nov-21 22:26 35.830634 -121.186668 319 32199ft 464kts
07-Nov-21 22:27 35.941075 -121.269183 319 32200ft 464kts
07-Nov-21 22:28 36.051432 -121.351963 319 32201ft 464kts
07-Nov-21 22:29 36.160244 -121.436301 318 32208ft 461kts
07-Nov-21 22:30 36.260364 -121.514400 319 31128ft 453kts
07-Nov-21 22:31 36.367649 -121.598544 321 26965ft 459kts
07-Nov-21 22:32 36.472110 -121.680843 321 24779ft 417kts
07-Nov-21 22:33 36.564849 -121.753867 321 23578ft 381kts
07-Nov-21 22:34 36.652878 -121.823706 321 21417ft 369kts
07-Nov-21 22:35 36.739881 -121.889236 331 19286ft 365kts
07-Nov-21 22:36 36.838371 -121.921346 342 17050ft 366kts
07-Nov-21 22:37 36.935720 -121.948435 343 15067ft 351kts
07-Nov-21 22:38 37.025246 -121.981096 338 13229ft 337kts
07-Nov-21 22:39 37.112584 -122.015740 339 11414ft 312kts
07-Nov-21 22:40 37.188914 -122.045592 341 9851ft 274kts
07-Nov-21 22:41 37.260030 -122.073492 342 8393ft 262kts
07-Nov-21 22:42 37.329097 -122.100664 343 6958ft 257kts
07-Nov-21 22:43 37.396711 -122.126561 345 5270ft 248kts
07-Nov-21 22:44 37.462937 -122.148925 345 4151ft 234kts
07-Nov-21 22:45 37.519954 -122.168535 345 3290ft 209kts
07-Nov-21 22:46 37.555062 -122.223042 298 2320ft 191kts
07-Nov-21 22:47 37.576205 -122.273588 298 1519ft 145kts
07-Nov-21 22:48 37.594259 -122.316617 298 778ft 130kts
07-Nov-21 22:49 37.611094 -122.356747 298 87ft 128kts
07-Nov-21 22:50 37.620005 -122.378053 301 21ft 8kts
07-Nov-21 22:51 37.621167 -122.377184 48 21ft 10kts
07-Nov-21 22:52 37.623700 -122.377695 298 21ft 17kts
07-Nov-21 22:53 37.626115 -122.383060 357 21ft 14kts
07-Nov-21 22:54 37.628205 -122.381025 116 21ft 5kts
07-Nov-21 22:55 37.628141 -122.380856 114 21ft 0kts
07-Nov-21 22:56 37.628141 -122.380856 114 21ft 0kts
07-Nov-21 22:57 37.628141 -122.380856 114 21ft 0kts
07-Nov-21 22:58 37.628141 -122.380856 114 21ft 0kts
07-Nov-21 22:59 37.628141 -122.380856 114 21ft 0kts
07-Nov-21 23:00 37.628141 -122.380856 114 21ft 0kts

Navigation Log

Ident Type
Flight plan parsing failed, navigation log unavailable